Bremerton, Washington
Current Conditions -  °F | °C
As of 10:55 PM on Wednesday 26 Nov 2014 (Local Time) from KPWT Reporting Station
Broken Clouds Broken Clouds  
Wind Chill: 54°   Ceiling: 4800
Heat Index: 54°   Visibility: 10mi
Dew Point: 54°   Wind: 14mph
Humidity: 100%   Direction: 200°SSW
Pressure: 29.87"   Gusts: NA
Location:  47.57°N, 122.62°W
Report Text: KPWT 270655Z AUTO 20012KT 10SM FEW037 BKN048 BKN060 12/12 A2987 RMK AO1 P0002
Loading
Personal Weather Stations






























Interactive Weather Map New forecast layout! Learn more

10-Day Weather Forecast

Advertisements
Track Severe Weather on mobile